sensor_id;sensor_type;location;lat;lon;timestamp;P1;durP1;ratioP1;P2;durP2;ratioP2
34639;SDS011;22600;48.186;11.526;2023-02-03T00:00:22;1.83;;;1.15;;
34639;SDS011;22600;48.186;11.526;2023-02-03T00:02:48;4.60;;;1.50;;
34639;SDS011;22600;48.186;11.526;2023-02-03T00:05:14;2.15;;;1.17;;
34639;SDS011;22600;48.186;11.526;2023-02-03T00:07:40;2.88;;;1.40;;
34639;SDS011;22600;48.186;11.526;2023-02-03T00:10:06;3.92;;;1.30;;
34639;SDS011;22600;48.186;11.526;2023-02-03T00:12:32;3.50;;;1.25;;
34639;SDS011;22600;48.186;11.526;2023-02-03T00:14:58;3.75;;;1.40;;
34639;SDS011;22600;48.186;11.526;2023-02-03T00:17:23;2.20;;;1.13;;
34639;SDS011;22600;48.186;11.526;2023-02-03T00:19:49;5.75;;;1.48;;
34639;SDS011;22600;48.186;11.526;2023-02-03T00:22:15;1.77;;;1.10;;
34639;SDS011;22600;48.186;11.526;2023-02-03T00:24:41;1.95;;;1.30;;
34639;SDS011;22600;48.186;11.526;2023-02-03T00:27:07;3.47;;;1.52;;
34639;SDS011;22600;48.186;11.526;2023-02-03T00:29:32;2.42;;;1.25;;
34639;SDS011;22600;48.186;11.526;2023-02-03T00:31:58;2.85;;;1.20;;
34639;SDS011;22600;48.186;11.526;2023-02-03T00:34:26;2.72;;;1.40;;
34639;SDS011;22600;48.186;11.526;2023-02-03T00:36:53;2.55;;;1.35;;
34639;SDS011;22600;48.186;11.526;2023-02-03T00:39:19;2.33;;;1.20;;
34639;SDS011;22600;48.186;11.526;2023-02-03T00:41:45;2.08;;;1.20;;
34639;SDS011;22600;48.186;11.526;2023-02-03T00:44:11;4.18;;;1.25;;
34639;SDS011;22600;48.186;11.526;2023-02-03T00:46:37;5.43;;;1.27;;
34639;SDS011;22600;48.186;11.526;2023-02-03T00:49:03;2.67;;;1.20;;
34639;SDS011;22600;48.186;11.526;2023-02-03T00:51:29;2.67;;;1.13;;
34639;SDS011;22600;48.186;11.526;2023-02-03T00:53:54;2.00;;;1.20;;
34639;SDS011;22600;48.186;11.526;2023-02-03T00:56:20;2.53;;;1.30;;
34639;SDS011;22600;48.186;11.526;2023-02-03T00:58:46;1.67;;;1.20;;
34639;SDS011;22600;48.186;11.526;2023-02-03T01:01:11;3.05;;;1.35;;
34639;SDS011;22600;48.186;11.526;2023-02-03T01:03:37;2.55;;;1.13;;
34639;SDS011;22600;48.186;11.526;2023-02-03T01:06:13;2.75;;;1.10;;
34639;SDS011;22600;48.186;11.526;2023-02-03T01:08:41;1.92;;;1.15;;
34639;SDS011;22600;48.186;11.526;2023-02-03T01:11:08;2.75;;;1.30;;
34639;SDS011;22600;48.186;11.526;2023-02-03T01:13:35;1.73;;;1.02;;
34639;SDS011;22600;48.186;11.526;2023-02-03T01:16:01;2.83;;;1.10;;
34639;SDS011;22600;48.186;11.526;2023-02-03T01:18:26;2.35;;;1.20;;
34639;SDS011;22600;48.186;11.526;2023-02-03T01:20:52;1.90;;;1.05;;
34639;SDS011;22600;48.186;11.526;2023-02-03T01:23:18;2.25;;;1.10;;
34639;SDS011;22600;48.186;11.526;2023-02-03T01:25:44;2.95;;;1.23;;
34639;SDS011;22600;48.186;11.526;2023-02-03T01:28:09;2.58;;;1.42;;
34639;SDS011;22600;48.186;11.526;2023-02-03T01:30:35;2.75;;;1.30;;
34639;SDS011;22600;48.186;11.526;2023-02-03T01:33:01;2.33;;;1.17;;
34639;SDS011;22600;48.186;11.526;2023-02-03T01:35:26;2.55;;;1.17;;
34639;SDS011;22600;48.186;11.526;2023-02-03T01:37:52;2.38;;;1.13;;
34639;SDS011;22600;48.186;11.526;2023-02-03T01:40:17;3.63;;;1.25;;
34639;SDS011;22600;48.186;11.526;2023-02-03T01:42:43;1.83;;;1.10;;
34639;SDS011;22600;48.186;11.526;2023-02-03T01:45:09;1.67;;;1.10;;
34639;SDS011;22600;48.186;11.526;2023-02-03T01:47:45;2.40;;;1.40;;
34639;SDS011;22600;48.186;11.526;2023-02-03T01:50:17;2.60;;;1.20;;
34639;SDS011;22600;48.186;11.526;2023-02-03T01:55:18;2.95;;;1.15;;
34639;SDS011;22600;48.186;11.526;2023-02-03T02:00:45;2.75;;;1.10;;
34639;SDS011;22600;48.186;11.526;2023-02-03T02:03:12;1.75;;;1.00;;
34639;SDS011;22600;48.186;11.526;2023-02-03T02:05:45;2.90;;;1.20;;
34639;SDS011;22600;48.186;11.526;2023-02-03T02:08:14;2.55;;;1.10;;
34639;SDS011;22600;48.186;11.526;2023-02-03T02:10:42;1.73;;;1.20;;
34639;SDS011;22600;48.186;11.526;2023-02-03T02:13:08;2.30;;;1.30;;
34639;SDS011;22600;48.186;11.526;2023-02-03T02:18:52;2.60;;;1.10;;
34639;SDS011;22600;48.186;11.526;2023-02-03T02:41:06;1.55;;;1.00;;
34639;SDS011;22600;48.186;11.526;2023-02-03T02:44:02;1.73;;;1.10;;
34639;SDS011;22600;48.186;11.526;2023-02-03T02:49:11;1.45;;;0.95;;
34639;SDS011;22600;48.186;11.526;2023-02-03T02:51:38;2.75;;;1.10;;
34639;SDS011;22600;48.186;11.526;2023-02-03T02:54:08;2.47;;;0.90;;
34639;SDS011;22600;48.186;11.526;2023-02-03T02:56:37;1.50;;;1.10;;
34639;SDS011;22600;48.186;11.526;2023-02-03T02:59:05;1.58;;;1.00;;
34639;SDS011;22600;48.186;11.526;2023-02-03T03:01:31;2.97;;;1.05;;
34639;SDS011;22600;48.186;11.526;2023-02-03T03:03:57;1.45;;;1.00;;
34639;SDS011;22600;48.186;11.526;2023-02-03T03:06:32;1.90;;;1.10;;
34639;SDS011;22600;48.186;11.526;2023-02-03T03:09:02;1.60;;;1.00;;
34639;SDS011;22600;48.186;11.526;2023-02-03T03:11:32;1.40;;;0.90;;
34639;SDS011;22600;48.186;11.526;2023-02-03T03:14:02;1.95;;;1.00;;
34639;SDS011;22600;48.186;11.526;2023-02-03T03:16:30;2.38;;;1.20;;
34639;SDS011;22600;48.186;11.526;2023-02-03T03:19:06;2.88;;;1.05;;
34639;SDS011;22600;48.186;11.526;2023-02-03T03:21:39;1.88;;;1.13;;
34639;SDS011;22600;48.186;11.526;2023-02-03T03:24:14;1.58;;;0.90;;
34639;SDS011;22600;48.186;11.526;2023-02-03T03:29:29;1.52;;;1.08;;
34639;SDS011;22600;48.186;11.526;2023-02-03T03:31:59;2.03;;;1.10;;
34639;SDS011;22600;48.186;11.526;2023-02-03T03:34:26;2.97;;;0.98;;
34639;SDS011;22600;48.186;11.526;2023-02-03T03:36:57;2.22;;;0.88;;
34639;SDS011;22600;48.186;11.526;2023-02-03T03:39:36;1.80;;;0.98;;
34639;SDS011;22600;48.186;11.526;2023-02-03T03:42:17;2.25;;;0.90;;
34639;SDS011;22600;48.186;11.526;2023-02-03T03:45:11;1.27;;;0.82;;
34639;SDS011;22600;48.186;11.526;2023-02-03T03:47:46;1.83;;;1.10;;
34639;SDS011;22600;48.186;11.526;2023-02-03T03:50:18;1.55;;;0.95;;
34639;SDS011;22600;48.186;11.526;2023-02-03T03:52:49;2.10;;;1.10;;
34639;SDS011;22600;48.186;11.526;2023-02-03T03:55:17;1.55;;;0.95;;
34639;SDS011;22600;48.186;11.526;2023-02-03T03:57:55;1.30;;;1.00;;
34639;SDS011;22600;48.186;11.526;2023-02-03T04:00:30;1.38;;;1.08;;
34639;SDS011;22600;48.186;11.526;2023-02-03T04:02:59;1.90;;;1.05;;
34639;SDS011;22600;48.186;11.526;2023-02-03T04:05:29;1.52;;;0.90;;
34639;SDS011;22600;48.186;11.526;2023-02-03T04:07:55;1.60;;;1.00;;
34639;SDS011;22600;48.186;11.526;2023-02-03T04:10:31;1.98;;;0.88;;
34639;SDS011;22600;48.186;11.526;2023-02-03T04:12:58;3.50;;;1.00;;
34639;SDS011;22600;48.186;11.526;2023-02-03T04:15:25;1.92;;;1.15;;
34639;SDS011;22600;48.186;11.526;2023-02-03T04:17:51;1.77;;;1.00;;
34639;SDS011;22600;48.186;11.526;2023-02-03T04:20:18;1.17;;;0.80;;
34639;SDS011;22600;48.186;11.526;2023-02-03T04:22:44;1.85;;;1.00;;
34639;SDS011;22600;48.186;11.526;2023-02-03T04:25:10;1.50;;;0.90;;
34639;SDS011;22600;48.186;11.526;2023-02-03T04:27:36;1.35;;;1.02;;
34639;SDS011;22600;48.186;11.526;2023-02-03T04:30:02;1.92;;;1.00;;
34639;SDS011;22600;48.186;11.526;2023-02-03T04:32:28;1.50;;;1.02;;
34639;SDS011;22600;48.186;11.526;2023-02-03T04:34:55;1.15;;;0.77;;
34639;SDS011;22600;48.186;11.526;2023-02-03T04:37:22;1.98;;;0.82;;
34639;SDS011;22600;48.186;11.526;2023-02-03T04:39:48;2.88;;;1.10;;
34639;SDS011;22600;48.186;11.526;2023-02-03T04:42:16;1.17;;;0.90;;
34639;SDS011;22600;48.186;11.526;2023-02-03T04:44:41;1.80;;;0.90;;
34639;SDS011;22600;48.186;11.526;2023-02-03T04:47:07;2.20;;;0.98;;
34639;SDS011;22600;48.186;11.526;2023-02-03T04:49:32;1.15;;;0.90;;
34639;SDS011;22600;48.186;11.526;2023-02-03T04:51:58;1.90;;;0.90;;
34639;SDS011;22600;48.186;11.526;2023-02-03T04:54:24;1.52;;;0.90;;
34639;SDS011;22600;48.186;11.526;2023-02-03T04:56:50;1.98;;;0.90;;
34639;SDS011;22600;48.186;11.526;2023-02-03T04:59:15;1.20;;;0.90;;
34639;SDS011;22600;48.186;11.526;2023-02-03T05:01:41;1.17;;;0.90;;
34639;SDS011;22600;48.186;11.526;2023-02-03T05:04:07;1.40;;;0.90;;
34639;SDS011;22600;48.186;11.526;2023-02-03T05:06:33;1.50;;;0.93;;
34639;SDS011;22600;48.186;11.526;2023-02-03T05:08:59;1.52;;;0.85;;
34639;SDS011;22600;48.186;11.526;2023-02-03T05:11:24;1.55;;;0.90;;
34639;SDS011;22600;48.186;11.526;2023-02-03T05:13:50;1.33;;;0.95;;
34639;SDS011;22600;48.186;11.526;2023-02-03T05:16:16;1.90;;;1.00;;
34639;SDS011;22600;48.186;11.526;2023-02-03T05:18:42;1.55;;;1.00;;
34639;SDS011;22600;48.186;11.526;2023-02-03T05:21:08;2.92;;;0.90;;
34639;SDS011;22600;48.186;11.526;2023-02-03T05:23:33;2.40;;;1.00;;
34639;SDS011;22600;48.186;11.526;2023-02-03T05:25:59;1.45;;;0.90;;
34639;SDS011;22600;48.186;11.526;2023-02-03T05:28:24;2.05;;;1.00;;
34639;SDS011;22600;48.186;11.526;2023-02-03T05:30:50;1.10;;;0.80;;
34639;SDS011;22600;48.186;11.526;2023-02-03T05:33:16;1.67;;;0.75;;
34639;SDS011;22600;48.186;11.526;2023-02-03T05:35:41;1.50;;;0.90;;
34639;SDS011;22600;48.186;11.526;2023-02-03T05:38:07;1.95;;;1.00;;
34639;SDS011;22600;48.186;11.526;2023-02-03T05:40:33;1.08;;;0.70;;
34639;SDS011;22600;48.186;11.526;2023-02-03T05:43:17;1.42;;;0.93;;
34639;SDS011;22600;48.186;11.526;2023-02-03T05:45:43;1.00;;;0.77;;
34639;SDS011;22600;48.186;11.526;2023-02-03T05:48:08;1.40;;;0.90;;
34639;SDS011;22600;48.186;11.526;2023-02-03T05:50:34;1.58;;;0.75;;
34639;SDS011;22600;48.186;11.526;2023-02-03T05:53:01;1.33;;;0.77;;
34639;SDS011;22600;48.186;11.526;2023-02-03T05:55:28;0.93;;;0.73;;
34639;SDS011;22600;48.186;11.526;2023-02-03T05:57:54;1.80;;;0.90;;
34639;SDS011;22600;48.186;11.526;2023-02-03T06:00:20;2.38;;;0.70;;
34639;SDS011;22600;48.186;11.526;2023-02-03T06:02:53;1.33;;;0.80;;
34639;SDS011;22600;48.186;11.526;2023-02-03T06:05:21;1.17;;;0.80;;
34639;SDS011;22600;48.186;11.526;2023-02-03T06:07:47;1.95;;;0.88;;
34639;SDS011;22600;48.186;11.526;2023-02-03T06:10:13;1.80;;;1.00;;
34639;SDS011;22600;48.186;11.526;2023-02-03T06:12:39;3.15;;;1.17;;
34639;SDS011;22600;48.186;11.526;2023-02-03T06:15:05;1.35;;;0.93;;
34639;SDS011;22600;48.186;11.526;2023-02-03T06:17:31;1.88;;;0.90;;
34639;SDS011;22600;48.186;11.526;2023-02-03T06:19:56;1.10;;;0.80;;
34639;SDS011;22600;48.186;11.526;2023-02-03T06:22:22;1.10;;;0.90;;
34639;SDS011;22600;48.186;11.526;2023-02-03T06:24:47;2.83;;;0.82;;
34639;SDS011;22600;48.186;11.526;2023-02-03T06:27:13;1.63;;;0.90;;
34639;SDS011;22600;48.186;11.526;2023-02-03T06:29:42;1.25;;;0.80;;
34639;SDS011;22600;48.186;11.526;2023-02-03T06:32:08;1.27;;;0.90;;
34639;SDS011;22600;48.186;11.526;2023-02-03T06:34:34;1.95;;;0.90;;
34639;SDS011;22600;48.186;11.526;2023-02-03T06:36:59;2.72;;;0.93;;
34639;SDS011;22600;48.186;11.526;2023-02-03T06:39:25;1.42;;;0.80;;
34639;SDS011;22600;48.186;11.526;2023-02-03T06:41:50;1.20;;;0.82;;
34639;SDS011;22600;48.186;11.526;2023-02-03T06:44:17;1.05;;;0.88;;
34639;SDS011;22600;48.186;11.526;2023-02-03T06:46:43;2.75;;;1.00;;
34639;SDS011;22600;48.186;11.526;2023-02-03T06:49:08;1.60;;;1.08;;
34639;SDS011;22600;48.186;11.526;2023-02-03T06:51:34;2.80;;;1.00;;
34639;SDS011;22600;48.186;11.526;2023-02-03T06:54:00;2.20;;;1.00;;
34639;SDS011;22600;48.186;11.526;2023-02-03T06:56:27;2.47;;;0.90;;
34639;SDS011;22600;48.186;11.526;2023-02-03T06:58:53;2.25;;;1.00;;
34639;SDS011;22600;48.186;11.526;2023-02-03T07:01:18;1.60;;;1.00;;
34639;SDS011;22600;48.186;11.526;2023-02-03T07:03:44;1.13;;;0.75;;
34639;SDS011;22600;48.186;11.526;2023-02-03T07:06:11;2.53;;;0.95;;
34639;SDS011;22600;48.186;11.526;2023-02-03T07:08:36;1.45;;;0.70;;
34639;SDS011;22600;48.186;11.526;2023-02-03T07:11:02;1.20;;;0.82;;
34639;SDS011;22600;48.186;11.526;2023-02-03T07:13:28;1.80;;;0.90;;
34639;SDS011;22600;48.186;11.526;2023-02-03T07:15:54;1.80;;;1.00;;
34639;SDS011;22600;48.186;11.526;2023-02-03T07:18:19;2.03;;;0.98;;
34639;SDS011;22600;48.186;11.526;2023-02-03T07:20:48;1.35;;;1.00;;
34639;SDS011;22600;48.186;11.526;2023-02-03T07:23:17;1.27;;;1.00;;
34639;SDS011;22600;48.186;11.526;2023-02-03T07:25:43;1.90;;;0.90;;
34639;SDS011;22600;48.186;11.526;2023-02-03T07:28:09;2.00;;;1.10;;
34639;SDS011;22600;48.186;11.526;2023-02-03T07:30:35;0.93;;;0.80;;
34639;SDS011;22600;48.186;11.526;2023-02-03T07:33:00;1.80;;;0.90;;
34639;SDS011;22600;48.186;11.526;2023-02-03T07:35:26;2.08;;;1.00;;
34639;SDS011;22600;48.186;11.526;2023-02-03T07:37:52;1.85;;;1.00;;
34639;SDS011;22600;48.186;11.526;2023-02-03T07:40:18;1.65;;;1.10;;
34639;SDS011;22600;48.186;11.526;2023-02-03T07:42:47;1.38;;;0.80;;
34639;SDS011;22600;48.186;11.526;2023-02-03T07:45:14;1.77;;;0.90;;
34639;SDS011;22600;48.186;11.526;2023-02-03T07:47:41;1.83;;;1.00;;
34639;SDS011;22600;48.186;11.526;2023-02-03T07:50:08;1.67;;;0.95;;
34639;SDS011;22600;48.186;11.526;2023-02-03T07:52:35;1.15;;;0.90;;
34639;SDS011;22600;48.186;11.526;2023-02-03T07:55:01;1.42;;;1.00;;
34639;SDS011;22600;48.186;11.526;2023-02-03T07:57:28;1.20;;;0.90;;
34639;SDS011;22600;48.186;11.526;2023-02-03T07:59:53;2.33;;;1.00;;
34639;SDS011;22600;48.186;11.526;2023-02-03T08:02:19;1.67;;;0.80;;
34639;SDS011;22600;48.186;11.526;2023-02-03T08:04:45;2.63;;;0.98;;
34639;SDS011;22600;48.186;11.526;2023-02-03T08:07:10;2.00;;;0.98;;
34639;SDS011;22600;48.186;11.526;2023-02-03T08:09:36;3.00;;;1.15;;
34639;SDS011;22600;48.186;11.526;2023-02-03T08:12:01;3.15;;;1.08;;
34639;SDS011;22600;48.186;11.526;2023-02-03T08:14:27;1.58;;;1.02;;
34639;SDS011;22600;48.186;11.526;2023-02-03T08:16:53;1.48;;;0.90;;
34639;SDS011;22600;48.186;11.526;2023-02-03T08:19:18;2.47;;;0.90;;
34639;SDS011;22600;48.186;11.526;2023-02-03T08:21:44;1.73;;;0.80;;
34639;SDS011;22600;48.186;11.526;2023-02-03T08:24:09;1.33;;;0.80;;
34639;SDS011;22600;48.186;11.526;2023-02-03T08:26:35;1.85;;;0.82;;
34639;SDS011;22600;48.186;11.526;2023-02-03T08:29:02;4.90;;;1.15;;
34639;SDS011;22600;48.186;11.526;2023-02-03T08:31:27;1.98;;;1.10;;
34639;SDS011;22600;48.186;11.526;2023-02-03T08:33:53;3.00;;;1.13;;
34639;SDS011;22600;48.186;11.526;2023-02-03T08:36:19;2.47;;;1.17;;
34639;SDS011;22600;48.186;11.526;2023-02-03T08:38:45;2.55;;;0.90;;
34639;SDS011;22600;48.186;11.526;2023-02-03T08:41:11;13.57;;;2.15;;
34639;SDS011;22600;48.186;11.526;2023-02-03T08:43:39;14.13;;;2.15;;
34639;SDS011;22600;48.186;11.526;2023-02-03T08:46:06;14.40;;;2.40;;
34639;SDS011;22600;48.186;11.526;2023-02-03T08:48:33;26.50;;;2.15;;
34639;SDS011;22600;48.186;11.526;2023-02-03T08:50:58;4.90;;;1.10;;
34639;SDS011;22600;48.186;11.526;2023-02-03T08:53:24;8.05;;;1.30;;
34639;SDS011;22600;48.186;11.526;2023-02-03T08:55:51;7.05;;;1.60;;
34639;SDS011;22600;48.186;11.526;2023-02-03T08:58:17;3.85;;;1.33;;
34639;SDS011;22600;48.186;11.526;2023-02-03T09:00:43;5.75;;;1.30;;
34639;SDS011;22600;48.186;11.526;2023-02-03T09:03:09;7.35;;;1.52;;
34639;SDS011;22600;48.186;11.526;2023-02-03T09:05:35;5.78;;;1.27;;
34639;SDS011;22600;48.186;11.526;2023-02-03T09:08:01;4.63;;;1.38;;
34639;SDS011;22600;48.186;11.526;2023-02-03T09:10:27;4.72;;;1.50;;
34639;SDS011;22600;48.186;11.526;2023-02-03T09:12:52;6.68;;;1.90;;
34639;SDS011;22600;48.186;11.526;2023-02-03T09:15:18;7.18;;;1.70;;
34639;SDS011;22600;48.186;11.526;2023-02-03T09:17:44;3.85;;;1.27;;
34639;SDS011;22600;48.186;11.526;2023-02-03T09:20:10;2.42;;;1.33;;
34639;SDS011;22600;48.186;11.526;2023-02-03T09:22:38;4.97;;;1.23;;
34639;SDS011;22600;48.186;11.526;2023-02-03T09:25:05;6.55;;;1.50;;
34639;SDS011;22600;48.186;11.526;2023-02-03T09:27:31;6.47;;;1.40;;
34639;SDS011;22600;48.186;11.526;2023-02-03T09:29:56;3.80;;;1.45;;
34639;SDS011;22600;48.186;11.526;2023-02-03T09:32:22;5.30;;;1.40;;
34639;SDS011;22600;48.186;11.526;2023-02-03T09:34:48;5.43;;;1.48;;
34639;SDS011;22600;48.186;11.526;2023-02-03T09:37:14;5.45;;;1.25;;
34639;SDS011;22600;48.186;11.526;2023-02-03T09:39:39;3.30;;;1.30;;
34639;SDS011;22600;48.186;11.526;2023-02-03T09:45:22;6.57;;;1.30;;
34639;SDS011;22600;48.186;11.526;2023-02-03T09:47:50;5.88;;;1.20;;
34639;SDS011;22600;48.186;11.526;2023-02-03T09:50:20;2.63;;;1.10;;
34639;SDS011;22600;48.186;11.526;2023-02-03T09:52:49;4.43;;;1.17;;
34639;SDS011;22600;48.186;11.526;2023-02-03T09:55:26;3.03;;;1.13;;
34639;SDS011;22600;48.186;11.526;2023-02-03T09:58:04;4.15;;;1.38;;
34639;SDS011;22600;48.186;11.526;2023-02-03T10:06:04;2.95;;;1.10;;
34639;SDS011;22600;48.186;11.526;2023-02-03T10:08:35;4.95;;;1.30;;
34639;SDS011;22600;48.186;11.526;2023-02-03T10:19:42;3.65;;;1.63;;
34639;SDS011;22600;48.186;11.526;2023-02-03T10:22:10;2.80;;;1.10;;
34639;SDS011;22600;48.186;11.526;2023-02-03T10:27:18;3.40;;;1.20;;
34639;SDS011;22600;48.186;11.526;2023-02-03T10:29:47;4.18;;;1.27;;
34639;SDS011;22600;48.186;11.526;2023-02-03T10:32:41;3.55;;;1.40;;
34639;SDS011;22600;48.186;11.526;2023-02-03T10:35:10;2.92;;;1.20;;
34639;SDS011;22600;48.186;11.526;2023-02-03T10:37:40;1.90;;;1.13;;
34639;SDS011;22600;48.186;11.526;2023-02-03T10:40:10;2.22;;;1.15;;
34639;SDS011;22600;48.186;11.526;2023-02-03T10:42:38;3.85;;;1.30;;
34639;SDS011;22600;48.186;11.526;2023-02-03T10:45:22;3.60;;;1.33;;
34639;SDS011;22600;48.186;11.526;2023-02-03T10:47:49;4.13;;;1.50;;
34639;SDS011;22600;48.186;11.526;2023-02-03T10:50:19;6.13;;;1.38;;
34639;SDS011;22600;48.186;11.526;2023-02-03T10:52:46;6.57;;;1.60;;
34639;SDS011;22600;48.186;11.526;2023-02-03T10:57:43;7.07;;;1.65;;
34639;SDS011;22600;48.186;11.526;2023-02-03T11:02:44;6.50;;;1.48;;
34639;SDS011;22600;48.186;11.526;2023-02-03T11:05:19;8.15;;;1.42;;
34639;SDS011;22600;48.186;11.526;2023-02-03T11:07:48;3.38;;;1.05;;
34639;SDS011;22600;48.186;11.526;2023-02-03T11:13:16;3.30;;;1.10;;
34639;SDS011;22600;48.186;11.526;2023-02-03T11:21:22;3.47;;;1.30;;
34639;SDS011;22600;48.186;11.526;2023-02-03T11:23:50;6.82;;;2.33;;
34639;SDS011;22600;48.186;11.526;2023-02-03T11:26:20;5.68;;;1.73;;
34639;SDS011;22600;48.186;11.526;2023-02-03T11:28:58;5.57;;;1.60;;
34639;SDS011;22600;48.186;11.526;2023-02-03T11:31:26;6.80;;;1.20;;
34639;SDS011;22600;48.186;11.526;2023-02-03T11:33:57;3.30;;;1.17;;
34639;SDS011;22600;48.186;11.526;2023-02-03T11:36:30;7.13;;;1.50;;
34639;SDS011;22600;48.186;11.526;2023-02-03T11:41:42;6.15;;;1.80;;
34639;SDS011;22600;48.186;11.526;2023-02-03T11:44:15;8.55;;;1.80;;
34639;SDS011;22600;48.186;11.526;2023-02-03T11:46:41;11.77;;;2.00;;
34639;SDS011;22600;48.186;11.526;2023-02-03T11:49:11;9.48;;;1.83;;
34639;SDS011;22600;48.186;11.526;2023-02-03T11:54:42;5.97;;;1.83;;
34639;SDS011;22600;48.186;11.526;2023-02-03T12:06:26;27.80;;;11.90;;
34639;SDS011;22600;48.186;11.526;2023-02-03T12:08:44;21.85;;;8.07;;
34639;SDS011;22600;48.186;11.526;2023-02-03T12:11:19;16.83;;;6.97;;
34639;SDS011;22600;48.186;11.526;2023-02-03T12:14:22;42.17;;;17.13;;
34639;SDS011;22600;48.186;11.526;2023-02-03T12:22:25;12.85;;;4.88;;
34639;SDS011;22600;48.186;11.526;2023-02-03T12:27:53;7.03;;;2.80;;
34639;SDS011;22600;48.186;11.526;2023-02-03T12:30:52;6.85;;;5.35;;
34639;SDS011;22600;48.186;11.526;2023-02-03T12:33:41;6.80;;;5.07;;
34639;SDS011;22600;48.186;11.526;2023-02-03T12:36:12;8.68;;;4.88;;
34639;SDS011;22600;48.186;11.526;2023-02-03T12:39:05;6.53;;;4.53;;
34639;SDS011;22600;48.186;11.526;2023-02-03T12:41:40;9.98;;;5.38;;
34639;SDS011;22600;48.186;11.526;2023-02-03T12:44:20;5.68;;;3.72;;
34639;SDS011;22600;48.186;11.526;2023-02-03T12:47:37;8.27;;;3.40;;
34639;SDS011;22600;48.186;11.526;2023-02-03T12:49:41;10.43;;;4.63;;
34639;SDS011;22600;48.186;11.526;2023-02-03T12:52:31;7.55;;;3.47;;
34639;SDS011;22600;48.186;11.526;2023-02-03T13:02:45;5.38;;;2.83;;
34639;SDS011;22600;48.186;11.526;2023-02-03T13:05:31;4.18;;;2.40;;
34639;SDS011;22600;48.186;11.526;2023-02-03T13:08:21;5.15;;;2.35;;
34639;SDS011;22600;48.186;11.526;2023-02-03T13:14:11;6.20;;;2.83;;
34639;SDS011;22600;48.186;11.526;2023-02-03T13:16:41;6.35;;;2.20;;
34639;SDS011;22600;48.186;11.526;2023-02-03T13:19:14;4.45;;;2.30;;
34639;SDS011;22600;48.186;11.526;2023-02-03T13:21:46;4.95;;;2.60;;
34639;SDS011;22600;48.186;11.526;2023-02-03T13:24:14;7.80;;;4.10;;
34639;SDS011;22600;48.186;11.526;2023-02-03T13:29:31;3.33;;;1.83;;
34639;SDS011;22600;48.186;11.526;2023-02-03T13:37:20;5.03;;;1.80;;
34639;SDS011;22600;48.186;11.526;2023-02-03T13:42:51;5.20;;;1.80;;
34639;SDS011;22600;48.186;11.526;2023-02-03T13:45:25;7.07;;;2.10;;
34639;SDS011;22600;48.186;11.526;2023-02-03T13:47:55;12.13;;;4.60;;
34639;SDS011;22600;48.186;11.526;2023-02-03T13:50:31;8.23;;;2.13;;
34639;SDS011;22600;48.186;11.526;2023-02-03T13:53:00;7.13;;;2.20;;
34639;SDS011;22600;48.186;11.526;2023-02-03T13:55:39;7.03;;;1.85;;
34639;SDS011;22600;48.186;11.526;2023-02-03T13:58:18;30.52;;;7.95;;
34639;SDS011;22600;48.186;11.526;2023-02-03T14:05:49;25.73;;;4.47;;
34639;SDS011;22600;48.186;11.526;2023-02-03T14:13:53;27.30;;;5.50;;
34639;SDS011;22600;48.186;11.526;2023-02-03T14:16:35;24.05;;;5.43;;
34639;SDS011;22600;48.186;11.526;2023-02-03T14:19:07;23.67;;;5.57;;
34639;SDS011;22600;48.186;11.526;2023-02-03T14:24:12;21.98;;;4.40;;
34639;SDS011;22600;48.186;11.526;2023-02-03T14:26:42;20.50;;;4.50;;
34639;SDS011;22600;48.186;11.526;2023-02-03T14:29:22;26.90;;;5.80;;
34639;SDS011;22600;48.186;11.526;2023-02-03T14:34:29;28.30;;;8.20;;
34639;SDS011;22600;48.186;11.526;2023-02-03T14:53:40;18.90;;;4.85;;
34639;SDS011;22600;48.186;11.526;2023-02-03T14:59:38;16.30;;;4.15;;
34639;SDS011;22600;48.186;11.526;2023-02-03T15:04:40;24.98;;;7.97;;
34639;SDS011;22600;48.186;11.526;2023-02-03T15:07:06;22.15;;;6.80;;
34639;SDS011;22600;48.186;11.526;2023-02-03T15:09:42;30.33;;;11.02;;
34639;SDS011;22600;48.186;11.526;2023-02-03T15:12:18;30.75;;;12.38;;
34639;SDS011;22600;48.186;11.526;2023-02-03T15:14:49;77.47;;;28.90;;
34639;SDS011;22600;48.186;11.526;2023-02-03T15:19:49;31.63;;;12.07;;
34639;SDS011;22600;48.186;11.526;2023-02-03T15:22:20;12.80;;;4.65;;
34639;SDS011;22600;48.186;11.526;2023-02-03T15:24:51;18.50;;;5.63;;
34639;SDS011;22600;48.186;11.526;2023-02-03T15:27:21;16.23;;;4.60;;
34639;SDS011;22600;48.186;11.526;2023-02-03T15:29:48;13.43;;;4.75;;
34639;SDS011;22600;48.186;11.526;2023-02-03T15:32:16;12.65;;;4.25;;
34639;SDS011;22600;48.186;11.526;2023-02-03T15:34:57;23.15;;;7.63;;
34639;SDS011;22600;48.186;11.526;2023-02-03T15:37:29;14.05;;;3.72;;
34639;SDS011;22600;48.186;11.526;2023-02-03T15:40:11;11.00;;;4.13;;
34639;SDS011;22600;48.186;11.526;2023-02-03T15:45:30;11.20;;;3.53;;
34639;SDS011;22600;48.186;11.526;2023-02-03T15:50:46;10.57;;;3.60;;
34639;SDS011;22600;48.186;11.526;2023-02-03T15:55:46;73.60;;;32.97;;
34639;SDS011;22600;48.186;11.526;2023-02-03T15:58:15;199.27;;;102.43;;
34639;SDS011;22600;48.186;11.526;2023-02-03T16:00:48;120.50;;;56.95;;
34639;SDS011;22600;48.186;11.526;2023-02-03T16:03:17;101.97;;;45.13;;
34639;SDS011;22600;48.186;11.526;2023-02-03T16:05:46;34.95;;;12.77;;
34639;SDS011;22600;48.186;11.526;2023-02-03T16:11:19;33.90;;;14.10;;
34639;SDS011;22600;48.186;11.526;2023-02-03T16:13:56;37.53;;;14.32;;
34639;SDS011;22600;48.186;11.526;2023-02-03T16:16:36;68.28;;;31.27;;
34639;SDS011;22600;48.186;11.526;2023-02-03T16:19:14;21.45;;;9.35;;
34639;SDS011;22600;48.186;11.526;2023-02-03T16:27:17;9.15;;;3.10;;
34639;SDS011;22600;48.186;11.526;2023-02-03T16:29:51;8.55;;;3.35;;
34639;SDS011;22600;48.186;11.526;2023-02-03T16:32:36;10.90;;;2.97;;
34639;SDS011;22600;48.186;11.526;2023-02-03T16:35:20;10.82;;;3.08;;
34639;SDS011;22600;48.186;11.526;2023-02-03T16:38:06;9.02;;;3.03;;
34639;SDS011;22600;48.186;11.526;2023-02-03T16:40:54;7.80;;;2.95;;
34639;SDS011;22600;48.186;11.526;2023-02-03T16:43:38;10.43;;;3.30;;
34639;SDS011;22600;48.186;11.526;2023-02-03T16:46:22;10.40;;;3.20;;
34639;SDS011;22600;48.186;11.526;2023-02-03T16:49:06;14.32;;;3.65;;
34639;SDS011;22600;48.186;11.526;2023-02-03T16:51:50;15.77;;;5.40;;
34639;SDS011;22600;48.186;11.526;2023-02-03T16:54:16;56.17;;;25.75;;
34639;SDS011;22600;48.186;11.526;2023-02-03T16:56:42;15.85;;;7.25;;
34639;SDS011;22600;48.186;11.526;2023-02-03T16:59:07;12.18;;;3.63;;
34639;SDS011;22600;48.186;11.526;2023-02-03T17:01:33;9.73;;;3.00;;
34639;SDS011;22600;48.186;11.526;2023-02-03T17:03:59;9.38;;;3.03;;
34639;SDS011;22600;48.186;11.526;2023-02-03T17:06:25;10.52;;;3.25;;
34639;SDS011;22600;48.186;11.526;2023-02-03T17:08:51;11.25;;;3.17;;
34639;SDS011;22600;48.186;11.526;2023-02-03T17:11:18;6.10;;;2.70;;
34639;SDS011;22600;48.186;11.526;2023-02-03T17:13:45;7.05;;;3.10;;
34639;SDS011;22600;48.186;11.526;2023-02-03T17:16:12;9.32;;;3.33;;
34639;SDS011;22600;48.186;11.526;2023-02-03T17:18:44;6.07;;;2.60;;
34639;SDS011;22600;48.186;11.526;2023-02-03T17:21:11;8.55;;;2.50;;
34639;SDS011;22600;48.186;11.526;2023-02-03T17:23:38;7.55;;;2.88;;
34639;SDS011;22600;48.186;11.526;2023-02-03T17:26:04;6.35;;;2.78;;
34639;SDS011;22600;48.186;11.526;2023-02-03T17:28:30;7.10;;;2.60;;
34639;SDS011;22600;48.186;11.526;2023-02-03T17:31:00;8.10;;;2.55;;
34639;SDS011;22600;48.186;11.526;2023-02-03T17:33:28;8.95;;;2.78;;